sensor_id;sensor_type;location;lat;lon;timestamp;P1;durP1;ratioP1;P2;durP2;ratioP2
505;SDS011;551;48.524;9.056;2023-01-26T00:01:57;14.90;;;10.13;;
505;SDS011;551;48.524;9.056;2023-01-26T00:04:23;15.70;;;9.10;;
505;SDS011;551;48.524;9.056;2023-01-26T00:06:49;15.80;;;10.37;;
505;SDS011;551;48.524;9.056;2023-01-26T00:09:14;17.23;;;10.00;;
505;SDS011;551;48.524;9.056;2023-01-26T00:11:40;18.47;;;10.73;;
505;SDS011;551;48.524;9.056;2023-01-26T00:14:06;16.27;;;10.10;;
505;SDS011;551;48.524;9.056;2023-01-26T00:16:31;18.27;;;11.43;;
505;SDS011;551;48.524;9.056;2023-01-26T00:18:57;18.03;;;11.43;;
505;SDS011;551;48.524;9.056;2023-01-26T00:21:22;23.07;;;10.93;;
505;SDS011;551;48.524;9.056;2023-01-26T00:23:48;21.10;;;12.53;;
505;SDS011;551;48.524;9.056;2023-01-26T00:26:16;22.03;;;12.53;;
505;SDS011;551;48.524;9.056;2023-01-26T00:28:43;24.37;;;13.17;;
505;SDS011;551;48.524;9.056;2023-01-26T00:31:11;24.10;;;12.47;;
505;SDS011;551;48.524;9.056;2023-01-26T00:33:38;22.00;;;12.83;;
505;SDS011;551;48.524;9.056;2023-01-26T00:36:04;23.00;;;14.00;;
505;SDS011;551;48.524;9.056;2023-01-26T00:38:30;21.10;;;12.93;;
505;SDS011;551;48.524;9.056;2023-01-26T00:40:55;23.63;;;12.40;;
505;SDS011;551;48.524;9.056;2023-01-26T00:43:21;26.30;;;13.90;;
505;SDS011;551;48.524;9.056;2023-01-26T00:45:47;30.03;;;14.50;;
505;SDS011;551;48.524;9.056;2023-01-26T00:48:12;25.93;;;14.20;;
505;SDS011;551;48.524;9.056;2023-01-26T00:50:38;24.03;;;12.53;;
505;SDS011;551;48.524;9.056;2023-01-26T00:53:03;25.53;;;14.80;;
505;SDS011;551;48.524;9.056;2023-01-26T00:55:29;24.67;;;14.30;;
505;SDS011;551;48.524;9.056;2023-01-26T00:57:58;27.03;;;14.00;;
505;SDS011;551;48.524;9.056;2023-01-26T01:00:24;26.70;;;14.77;;
505;SDS011;551;48.524;9.056;2023-01-26T01:02:51;28.47;;;13.57;;
505;SDS011;551;48.524;9.056;2023-01-26T01:05:16;24.80;;;12.53;;
505;SDS011;551;48.524;9.056;2023-01-26T01:07:42;30.40;;;14.37;;
505;SDS011;551;48.524;9.056;2023-01-26T01:10:08;30.30;;;14.87;;
505;SDS011;551;48.524;9.056;2023-01-26T01:12:34;24.17;;;13.27;;
505;SDS011;551;48.524;9.056;2023-01-26T01:14:59;24.70;;;13.77;;
505;SDS011;551;48.524;9.056;2023-01-26T01:17:25;24.10;;;13.30;;
505;SDS011;551;48.524;9.056;2023-01-26T01:19:51;24.87;;;13.23;;
505;SDS011;551;48.524;9.056;2023-01-26T01:22:16;26.87;;;13.23;;
505;SDS011;551;48.524;9.056;2023-01-26T01:24:42;28.77;;;12.77;;
505;SDS011;551;48.524;9.056;2023-01-26T01:27:07;27.80;;;13.40;;
505;SDS011;551;48.524;9.056;2023-01-26T01:29:33;30.00;;;13.27;;
505;SDS011;551;48.524;9.056;2023-01-26T01:31:58;22.10;;;12.77;;
505;SDS011;551;48.524;9.056;2023-01-26T01:34:24;26.30;;;11.83;;
505;SDS011;551;48.524;9.056;2023-01-26T01:36:49;26.03;;;13.37;;
505;SDS011;551;48.524;9.056;2023-01-26T01:39:16;22.17;;;12.80;;
505;SDS011;551;48.524;9.056;2023-01-26T01:41:41;25.60;;;13.77;;
505;SDS011;551;48.524;9.056;2023-01-26T01:44:25;30.60;;;14.57;;
505;SDS011;551;48.524;9.056;2023-01-26T01:47:01;22.50;;;12.10;;
505;SDS011;551;48.524;9.056;2023-01-26T01:49:37;27.47;;;14.17;;
505;SDS011;551;48.524;9.056;2023-01-26T01:52:42;25.60;;;12.73;;
505;SDS011;551;48.524;9.056;2023-01-26T01:55:02;26.00;;;13.33;;
505;SDS011;551;48.524;9.056;2023-01-26T01:57:32;22.27;;;12.23;;
505;SDS011;551;48.524;9.056;2023-01-26T02:00:08;22.97;;;13.50;;
505;SDS011;551;48.524;9.056;2023-01-26T02:02:36;18.17;;;11.87;;
505;SDS011;551;48.524;9.056;2023-01-26T02:05:12;23.83;;;12.37;;
505;SDS011;551;48.524;9.056;2023-01-26T02:07:48;22.10;;;12.03;;
505;SDS011;551;48.524;9.056;2023-01-26T02:10:15;27.07;;;15.40;;
505;SDS011;551;48.524;9.056;2023-01-26T02:12:43;27.60;;;13.00;;
505;SDS011;551;48.524;9.056;2023-01-26T02:15:11;23.23;;;11.77;;
505;SDS011;551;48.524;9.056;2023-01-26T02:17:38;25.83;;;13.50;;
505;SDS011;551;48.524;9.056;2023-01-26T02:25:39;24.33;;;13.80;;
505;SDS011;551;48.524;9.056;2023-01-26T02:28:13;28.27;;;14.00;;
505;SDS011;551;48.524;9.056;2023-01-26T02:30:39;28.53;;;14.10;;
505;SDS011;551;48.524;9.056;2023-01-26T02:33:05;25.53;;;13.70;;
505;SDS011;551;48.524;9.056;2023-01-26T02:35:30;23.27;;;12.30;;
505;SDS011;551;48.524;9.056;2023-01-26T02:37:56;20.77;;;12.33;;
505;SDS011;551;48.524;9.056;2023-01-26T02:40:29;23.93;;;13.60;;
505;SDS011;551;48.524;9.056;2023-01-26T02:43:01;24.77;;;12.70;;
505;SDS011;551;48.524;9.056;2023-01-26T02:45:27;19.77;;;12.63;;
505;SDS011;551;48.524;9.056;2023-01-26T02:47:55;29.67;;;15.43;;
505;SDS011;551;48.524;9.056;2023-01-26T02:50:21;26.60;;;13.37;;
505;SDS011;551;48.524;9.056;2023-01-26T02:52:47;24.33;;;13.40;;
505;SDS011;551;48.524;9.056;2023-01-26T02:55:13;28.53;;;13.47;;
505;SDS011;551;48.524;9.056;2023-01-26T02:58:01;23.00;;;13.07;;
505;SDS011;551;48.524;9.056;2023-01-26T03:00:29;22.90;;;14.07;;
505;SDS011;551;48.524;9.056;2023-01-26T03:02:59;24.10;;;13.90;;
505;SDS011;551;48.524;9.056;2023-01-26T03:05:26;23.40;;;13.73;;
505;SDS011;551;48.524;9.056;2023-01-26T03:07:52;21.10;;;11.50;;
505;SDS011;551;48.524;9.056;2023-01-26T03:10:18;22.90;;;12.47;;
505;SDS011;551;48.524;9.056;2023-01-26T03:12:43;21.70;;;12.40;;
505;SDS011;551;48.524;9.056;2023-01-26T03:15:10;25.20;;;13.40;;
505;SDS011;551;48.524;9.056;2023-01-26T03:18:01;28.50;;;13.80;;
505;SDS011;551;48.524;9.056;2023-01-26T03:20:49;21.70;;;12.60;;
505;SDS011;551;48.524;9.056;2023-01-26T03:23:33;28.30;;;13.90;;
505;SDS011;551;48.524;9.056;2023-01-26T03:26:17;22.93;;;12.73;;
505;SDS011;551;48.524;9.056;2023-01-26T03:29:01;23.60;;;13.53;;
505;SDS011;551;48.524;9.056;2023-01-26T03:31:27;26.70;;;14.70;;
505;SDS011;551;48.524;9.056;2023-01-26T03:33:52;21.30;;;11.67;;
505;SDS011;551;48.524;9.056;2023-01-26T03:36:18;19.50;;;11.70;;
505;SDS011;551;48.524;9.056;2023-01-26T03:38:43;17.83;;;11.27;;
505;SDS011;551;48.524;9.056;2023-01-26T03:41:09;26.80;;;13.83;;
505;SDS011;551;48.524;9.056;2023-01-26T03:43:53;31.93;;;14.20;;
505;SDS011;551;48.524;9.056;2023-01-26T03:46:37;28.60;;;15.57;;
505;SDS011;551;48.524;9.056;2023-01-26T03:49:21;24.23;;;13.10;;
505;SDS011;551;48.524;9.056;2023-01-26T03:52:05;23.80;;;13.30;;
505;SDS011;551;48.524;9.056;2023-01-26T03:54:49;23.63;;;12.70;;
505;SDS011;551;48.524;9.056;2023-01-26T03:57:33;32.83;;;14.17;;
505;SDS011;551;48.524;9.056;2023-01-26T03:59:59;25.27;;;13.03;;
505;SDS011;551;48.524;9.056;2023-01-26T04:02:24;29.40;;;15.37;;
505;SDS011;551;48.524;9.056;2023-01-26T04:05:08;24.00;;;14.10;;
505;SDS011;551;48.524;9.056;2023-01-26T04:07:52;27.30;;;12.93;;
505;SDS011;551;48.524;9.056;2023-01-26T04:10:36;27.27;;;13.97;;
505;SDS011;551;48.524;9.056;2023-01-26T04:13:02;23.20;;;12.10;;
505;SDS011;551;48.524;9.056;2023-01-26T04:15:46;25.87;;;13.40;;
505;SDS011;551;48.524;9.056;2023-01-26T04:18:31;29.27;;;13.17;;
505;SDS011;551;48.524;9.056;2023-01-26T04:24:18;26.63;;;13.33;;
505;SDS011;551;48.524;9.056;2023-01-26T04:26:46;26.20;;;14.40;;
505;SDS011;551;48.524;9.056;2023-01-26T04:29:12;23.63;;;14.40;;
505;SDS011;551;48.524;9.056;2023-01-26T04:31:39;35.10;;;14.73;;
505;SDS011;551;48.524;9.056;2023-01-26T04:34:08;28.23;;;14.83;;
505;SDS011;551;48.524;9.056;2023-01-26T04:36:35;36.50;;;15.67;;
505;SDS011;551;48.524;9.056;2023-01-26T04:39:01;25.27;;;12.27;;
505;SDS011;551;48.524;9.056;2023-01-26T04:41:27;19.37;;;10.20;;
505;SDS011;551;48.524;9.056;2023-01-26T04:43:53;22.93;;;12.00;;
505;SDS011;551;48.524;9.056;2023-01-26T04:46:19;21.90;;;11.23;;
505;SDS011;551;48.524;9.056;2023-01-26T04:48:45;23.87;;;12.47;;
505;SDS011;551;48.524;9.056;2023-01-26T04:51:11;23.40;;;12.90;;
505;SDS011;551;48.524;9.056;2023-01-26T04:53:39;27.20;;;13.43;;
505;SDS011;551;48.524;9.056;2023-01-26T04:56:05;28.53;;;13.90;;
505;SDS011;551;48.524;9.056;2023-01-26T04:58:33;27.10;;;13.47;;
505;SDS011;551;48.524;9.056;2023-01-26T05:00:59;32.00;;;13.87;;
505;SDS011;551;48.524;9.056;2023-01-26T05:03:25;35.83;;;16.00;;
505;SDS011;551;48.524;9.056;2023-01-26T05:05:51;30.27;;;15.33;;
505;SDS011;551;48.524;9.056;2023-01-26T05:08:19;28.63;;;13.60;;
505;SDS011;551;48.524;9.056;2023-01-26T05:10:45;32.43;;;16.03;;
505;SDS011;551;48.524;9.056;2023-01-26T05:13:11;32.40;;;14.83;;
505;SDS011;551;48.524;9.056;2023-01-26T05:15:37;33.13;;;17.07;;
505;SDS011;551;48.524;9.056;2023-01-26T05:18:03;28.87;;;15.20;;
505;SDS011;551;48.524;9.056;2023-01-26T05:20:30;31.03;;;14.87;;
505;SDS011;551;48.524;9.056;2023-01-26T05:22:55;35.50;;;16.00;;
505;SDS011;551;48.524;9.056;2023-01-26T05:25:21;28.97;;;13.60;;
505;SDS011;551;48.524;9.056;2023-01-26T05:27:47;22.53;;;11.77;;
505;SDS011;551;48.524;9.056;2023-01-26T05:30:13;38.47;;;13.23;;
505;SDS011;551;48.524;9.056;2023-01-26T05:32:39;30.33;;;13.40;;
505;SDS011;551;48.524;9.056;2023-01-26T05:35:05;33.97;;;15.20;;
505;SDS011;551;48.524;9.056;2023-01-26T05:37:31;31.77;;;15.13;;
505;SDS011;551;48.524;9.056;2023-01-26T05:39:58;23.30;;;10.60;;
505;SDS011;551;48.524;9.056;2023-01-26T05:42:23;32.57;;;13.70;;
505;SDS011;551;48.524;9.056;2023-01-26T05:44:49;28.80;;;12.33;;
505;SDS011;551;48.524;9.056;2023-01-26T05:47:14;20.27;;;10.87;;
505;SDS011;551;48.524;9.056;2023-01-26T05:49:40;24.03;;;10.77;;
505;SDS011;551;48.524;9.056;2023-01-26T05:52:17;18.00;;;10.07;;
505;SDS011;551;48.524;9.056;2023-01-26T05:54:44;19.33;;;9.47;;
505;SDS011;551;48.524;9.056;2023-01-26T05:57:10;17.47;;;9.03;;
505;SDS011;551;48.524;9.056;2023-01-26T05:59:36;20.60;;;9.07;;
505;SDS011;551;48.524;9.056;2023-01-26T06:02:01;18.47;;;9.80;;
505;SDS011;551;48.524;9.056;2023-01-26T06:04:27;28.30;;;12.80;;
505;SDS011;551;48.524;9.056;2023-01-26T06:06:53;18.97;;;9.50;;
505;SDS011;551;48.524;9.056;2023-01-26T06:09:20;20.97;;;10.87;;
505;SDS011;551;48.524;9.056;2023-01-26T06:11:45;21.90;;;9.50;;
505;SDS011;551;48.524;9.056;2023-01-26T06:14:11;21.30;;;10.10;;
505;SDS011;551;48.524;9.056;2023-01-26T06:16:37;20.97;;;9.77;;
505;SDS011;551;48.524;9.056;2023-01-26T06:19:03;21.37;;;11.73;;
505;SDS011;551;48.524;9.056;2023-01-26T06:21:31;18.90;;;10.10;;
505;SDS011;551;48.524;9.056;2023-01-26T06:23:57;20.20;;;9.70;;
505;SDS011;551;48.524;9.056;2023-01-26T06:26:23;24.13;;;11.10;;
505;SDS011;551;48.524;9.056;2023-01-26T06:28:50;34.03;;;11.80;;
505;SDS011;551;48.524;9.056;2023-01-26T06:31:16;26.77;;;11.77;;
505;SDS011;551;48.524;9.056;2023-01-26T06:33:42;23.77;;;10.50;;
505;SDS011;551;48.524;9.056;2023-01-26T06:36:08;24.07;;;11.37;;
505;SDS011;551;48.524;9.056;2023-01-26T06:38:35;26.80;;;11.00;;
505;SDS011;551;48.524;9.056;2023-01-26T06:41:03;19.87;;;10.33;;
505;SDS011;551;48.524;9.056;2023-01-26T06:43:30;21.27;;;9.63;;
505;SDS011;551;48.524;9.056;2023-01-26T06:45:57;24.40;;;10.93;;
505;SDS011;551;48.524;9.056;2023-01-26T06:48:26;20.87;;;10.40;;
505;SDS011;551;48.524;9.056;2023-01-26T06:50:56;23.57;;;10.70;;
505;SDS011;551;48.524;9.056;2023-01-26T06:53:32;27.73;;;10.20;;
505;SDS011;551;48.524;9.056;2023-01-26T06:55:59;22.27;;;9.07;;
505;SDS011;551;48.524;9.056;2023-01-26T06:58:24;21.13;;;7.50;;
505;SDS011;551;48.524;9.056;2023-01-26T07:00:50;20.03;;;9.40;;
505;SDS011;551;48.524;9.056;2023-01-26T07:03:16;13.00;;;7.80;;
505;SDS011;551;48.524;9.056;2023-01-26T07:05:41;22.13;;;9.87;;
505;SDS011;551;48.524;9.056;2023-01-26T07:08:07;20.10;;;10.00;;
505;SDS011;551;48.524;9.056;2023-01-26T07:10:33;21.30;;;7.53;;
505;SDS011;551;48.524;9.056;2023-01-26T07:12:59;14.77;;;9.00;;
505;SDS011;551;48.524;9.056;2023-01-26T07:15:27;15.23;;;7.83;;
505;SDS011;551;48.524;9.056;2023-01-26T07:17:52;16.77;;;9.17;;
505;SDS011;551;48.524;9.056;2023-01-26T07:20:18;17.37;;;8.73;;
505;SDS011;551;48.524;9.056;2023-01-26T07:22:44;18.33;;;9.07;;
505;SDS011;551;48.524;9.056;2023-01-26T07:25:09;14.20;;;7.40;;
505;SDS011;551;48.524;9.056;2023-01-26T07:27:36;14.17;;;7.13;;
505;SDS011;551;48.524;9.056;2023-01-26T07:30:01;15.63;;;8.13;;
505;SDS011;551;48.524;9.056;2023-01-26T07:32:27;17.33;;;8.53;;
505;SDS011;551;48.524;9.056;2023-01-26T07:34:53;12.80;;;7.63;;
505;SDS011;551;48.524;9.056;2023-01-26T07:37:18;16.93;;;8.47;;
505;SDS011;551;48.524;9.056;2023-01-26T07:39:44;18.67;;;9.27;;
505;SDS011;551;48.524;9.056;2023-01-26T07:42:09;16.60;;;7.80;;
505;SDS011;551;48.524;9.056;2023-01-26T07:44:35;15.97;;;8.30;;
505;SDS011;551;48.524;9.056;2023-01-26T07:47:00;17.80;;;7.17;;
505;SDS011;551;48.524;9.056;2023-01-26T07:49:26;14.83;;;8.30;;
505;SDS011;551;48.524;9.056;2023-01-26T07:51:51;12.13;;;6.70;;
505;SDS011;551;48.524;9.056;2023-01-26T07:54:18;23.67;;;9.70;;
505;SDS011;551;48.524;9.056;2023-01-26T07:56:45;15.57;;;6.87;;
505;SDS011;551;48.524;9.056;2023-01-26T07:59:11;16.30;;;7.93;;
505;SDS011;551;48.524;9.056;2023-01-26T08:01:36;12.30;;;7.30;;
505;SDS011;551;48.524;9.056;2023-01-26T08:04:03;16.43;;;8.13;;
505;SDS011;551;48.524;9.056;2023-01-26T08:06:28;17.70;;;8.13;;
505;SDS011;551;48.524;9.056;2023-01-26T08:08:54;19.80;;;8.13;;
505;SDS011;551;48.524;9.056;2023-01-26T08:11:20;17.10;;;9.40;;
505;SDS011;551;48.524;9.056;2023-01-26T08:13:47;12.40;;;7.33;;
505;SDS011;551;48.524;9.056;2023-01-26T08:16:12;21.70;;;9.00;;
505;SDS011;551;48.524;9.056;2023-01-26T08:18:42;15.57;;;9.00;;
505;SDS011;551;48.524;9.056;2023-01-26T08:21:09;21.70;;;9.13;;
505;SDS011;551;48.524;9.056;2023-01-26T08:23:35;15.53;;;7.90;;
505;SDS011;551;48.524;9.056;2023-01-26T08:26:02;20.10;;;9.40;;
505;SDS011;551;48.524;9.056;2023-01-26T08:28:29;13.67;;;8.10;;
505;SDS011;551;48.524;9.056;2023-01-26T08:30:55;15.43;;;8.80;;
505;SDS011;551;48.524;9.056;2023-01-26T08:33:21;16.60;;;9.47;;
505;SDS011;551;48.524;9.056;2023-01-26T08:35:47;12.27;;;8.10;;
505;SDS011;551;48.524;9.056;2023-01-26T08:38:13;19.90;;;9.50;;
505;SDS011;551;48.524;9.056;2023-01-26T08:40:38;25.53;;;10.10;;
505;SDS011;551;48.524;9.056;2023-01-26T08:43:04;15.77;;;7.13;;
505;SDS011;551;48.524;9.056;2023-01-26T08:45:29;18.23;;;9.10;;
505;SDS011;551;48.524;9.056;2023-01-26T08:47:56;15.80;;;8.27;;
505;SDS011;551;48.524;9.056;2023-01-26T08:50:21;19.13;;;9.37;;
505;SDS011;551;48.524;9.056;2023-01-26T08:52:47;18.03;;;8.23;;
505;SDS011;551;48.524;9.056;2023-01-26T08:55:13;14.90;;;7.90;;
505;SDS011;551;48.524;9.056;2023-01-26T08:57:38;15.90;;;8.43;;
505;SDS011;551;48.524;9.056;2023-01-26T09:00:04;19.40;;;9.10;;
505;SDS011;551;48.524;9.056;2023-01-26T09:02:31;20.73;;;8.47;;
505;SDS011;551;48.524;9.056;2023-01-26T09:04:56;15.93;;;8.33;;
505;SDS011;551;48.524;9.056;2023-01-26T09:07:22;17.90;;;10.10;;
505;SDS011;551;48.524;9.056;2023-01-26T09:09:47;15.63;;;7.87;;
505;SDS011;551;48.524;9.056;2023-01-26T09:12:13;13.77;;;7.40;;
505;SDS011;551;48.524;9.056;2023-01-26T09:14:38;15.10;;;8.20;;
505;SDS011;551;48.524;9.056;2023-01-26T09:17:05;18.23;;;8.17;;
505;SDS011;551;48.524;9.056;2023-01-26T09:19:30;21.70;;;8.60;;
505;SDS011;551;48.524;9.056;2023-01-26T09:21:56;13.20;;;7.03;;
505;SDS011;551;48.524;9.056;2023-01-26T09:24:21;13.63;;;7.40;;
505;SDS011;551;48.524;9.056;2023-01-26T09:26:47;16.10;;;8.33;;
505;SDS011;551;48.524;9.056;2023-01-26T09:29:13;16.30;;;10.10;;
505;SDS011;551;48.524;9.056;2023-01-26T09:31:40;17.80;;;8.50;;
505;SDS011;551;48.524;9.056;2023-01-26T09:34:05;21.17;;;8.50;;
505;SDS011;551;48.524;9.056;2023-01-26T09:36:31;21.73;;;8.17;;
505;SDS011;551;48.524;9.056;2023-01-26T09:38:57;15.83;;;7.20;;
505;SDS011;551;48.524;9.056;2023-01-26T09:44:14;20.80;;;6.80;;
505;SDS011;551;48.524;9.056;2023-01-26T09:46:54;12.70;;;7.20;;
505;SDS011;551;48.524;9.056;2023-01-26T09:49:40;17.30;;;6.87;;
505;SDS011;551;48.524;9.056;2023-01-26T09:52:27;14.83;;;6.47;;
505;SDS011;551;48.524;9.056;2023-01-26T09:54:59;11.30;;;7.00;;
505;SDS011;551;48.524;9.056;2023-01-26T09:57:33;7.43;;;4.80;;
505;SDS011;551;48.524;9.056;2023-01-26T10:02:49;9.37;;;5.10;;
505;SDS011;551;48.524;9.056;2023-01-26T10:08:15;9.47;;;5.80;;
505;SDS011;551;48.524;9.056;2023-01-26T10:10:45;8.40;;;5.60;;
505;SDS011;551;48.524;9.056;2023-01-26T10:13:15;7.30;;;5.37;;
505;SDS011;551;48.524;9.056;2023-01-26T10:15:42;13.13;;;6.60;;
505;SDS011;551;48.524;9.056;2023-01-26T10:18:30;17.17;;;7.97;;
505;SDS011;551;48.524;9.056;2023-01-26T10:21:00;11.17;;;6.30;;
505;SDS011;551;48.524;9.056;2023-01-26T10:23:29;10.60;;;6.10;;
505;SDS011;551;48.524;9.056;2023-01-26T10:26:12;10.53;;;6.70;;
505;SDS011;551;48.524;9.056;2023-01-26T10:28:43;11.73;;;7.27;;
505;SDS011;551;48.524;9.056;2023-01-26T10:31:11;15.77;;;6.57;;
505;SDS011;551;48.524;9.056;2023-01-26T10:33:54;18.40;;;7.00;;
505;SDS011;551;48.524;9.056;2023-01-26T10:36:22;14.30;;;7.00;;
505;SDS011;551;48.524;9.056;2023-01-26T10:38:49;16.73;;;7.87;;
505;SDS011;551;48.524;9.056;2023-01-26T10:41:20;15.47;;;8.03;;
505;SDS011;551;48.524;9.056;2023-01-26T10:43:49;11.80;;;7.30;;
505;SDS011;551;48.524;9.056;2023-01-26T10:46:36;12.70;;;8.10;;
505;SDS011;551;48.524;9.056;2023-01-26T10:51:39;12.83;;;7.50;;
505;SDS011;551;48.524;9.056;2023-01-26T10:54:20;12.07;;;7.63;;
505;SDS011;551;48.524;9.056;2023-01-26T10:56:57;14.97;;;7.10;;
505;SDS011;551;48.524;9.056;2023-01-26T10:59:29;12.83;;;6.03;;
505;SDS011;551;48.524;9.056;2023-01-26T11:05:02;10.30;;;6.80;;
505;SDS011;551;48.524;9.056;2023-01-26T11:07:40;11.27;;;6.17;;
505;SDS011;551;48.524;9.056;2023-01-26T11:10:20;12.20;;;6.10;;
505;SDS011;551;48.524;9.056;2023-01-26T11:13:13;15.87;;;7.80;;
505;SDS011;551;48.524;9.056;2023-01-26T11:15:42;11.87;;;6.90;;
505;SDS011;551;48.524;9.056;2023-01-26T11:18:14;12.63;;;6.70;;
505;SDS011;551;48.524;9.056;2023-01-26T11:20:47;14.70;;;7.50;;
505;SDS011;551;48.524;9.056;2023-01-26T11:37:29;7.97;;;5.30;;
505;SDS011;551;48.524;9.056;2023-01-26T12:00:20;11.07;;;5.73;;
505;SDS011;551;48.524;9.056;2023-01-26T12:02:52;9.70;;;5.70;;
505;SDS011;551;48.524;9.056;2023-01-26T12:05:32;9.63;;;5.37;;
505;SDS011;551;48.524;9.056;2023-01-26T12:08:10;8.43;;;5.40;;
505;SDS011;551;48.524;9.056;2023-01-26T12:13:46;10.90;;;6.53;;
505;SDS011;551;48.524;9.056;2023-01-26T12:16:20;10.87;;;6.00;;
505;SDS011;551;48.524;9.056;2023-01-26T12:22:12;9.53;;;5.93;;
505;SDS011;551;48.524;9.056;2023-01-26T12:27:41;12.17;;;5.87;;
505;SDS011;551;48.524;9.056;2023-01-26T12:32:59;13.83;;;7.43;;
505;SDS011;551;48.524;9.056;2023-01-26T12:35:42;12.37;;;6.47;;
505;SDS011;551;48.524;9.056;2023-01-26T12:38:18;13.93;;;6.63;;
505;SDS011;551;48.524;9.056;2023-01-26T12:41:08;15.00;;;7.13;;
505;SDS011;551;48.524;9.056;2023-01-26T12:43:56;11.07;;;6.80;;
505;SDS011;551;48.524;9.056;2023-01-26T12:46:42;15.67;;;8.00;;
505;SDS011;551;48.524;9.056;2023-01-26T12:52:00;13.73;;;7.60;;
505;SDS011;551;48.524;9.056;2023-01-26T12:54:48;10.80;;;6.63;;
505;SDS011;551;48.524;9.056;2023-01-26T12:57:25;15.53;;;6.43;;
505;SDS011;551;48.524;9.056;2023-01-26T13:00:05;12.30;;;6.83;;
505;SDS011;551;48.524;9.056;2023-01-26T13:02:44;11.60;;;6.00;;
505;SDS011;551;48.524;9.056;2023-01-26T13:05:31;12.47;;;6.63;;
505;SDS011;551;48.524;9.056;2023-01-26T13:10:55;10.60;;;5.93;;
505;SDS011;551;48.524;9.056;2023-01-26T13:13:26;12.63;;;6.73;;
505;SDS011;551;48.524;9.056;2023-01-26T13:18:52;15.80;;;6.40;;
505;SDS011;551;48.524;9.056;2023-01-26T13:26:51;10.93;;;6.10;;
505;SDS011;551;48.524;9.056;2023-01-26T13:31:48;11.40;;;6.70;;
505;SDS011;551;48.524;9.056;2023-01-26T13:34:22;12.83;;;7.30;;
505;SDS011;551;48.524;9.056;2023-01-26T13:36:54;7.83;;;5.20;;
505;SDS011;551;48.524;9.056;2023-01-26T13:39:36;11.17;;;5.57;;
505;SDS011;551;48.524;9.056;2023-01-26T13:42:15;9.97;;;5.67;;
505;SDS011;551;48.524;9.056;2023-01-26T13:44:53;14.80;;;6.43;;
505;SDS011;551;48.524;9.056;2023-01-26T13:47:25;13.43;;;6.50;;
505;SDS011;551;48.524;9.056;2023-01-26T13:49:55;12.93;;;6.03;;
505;SDS011;551;48.524;9.056;2023-01-26T13:52:22;16.90;;;7.77;;
505;SDS011;551;48.524;9.056;2023-01-26T13:54:51;9.93;;;6.20;;
505;SDS011;551;48.524;9.056;2023-01-26T13:57:25;9.27;;;6.80;;
505;SDS011;551;48.524;9.056;2023-01-26T13:59:55;11.50;;;7.00;;
505;SDS011;551;48.524;9.056;2023-01-26T14:02:29;10.73;;;6.50;;
505;SDS011;551;48.524;9.056;2023-01-26T14:04:56;11.00;;;6.30;;
505;SDS011;551;48.524;9.056;2023-01-26T14:07:24;14.37;;;7.27;;
505;SDS011;551;48.524;9.056;2023-01-26T14:10:17;9.90;;;6.73;;
505;SDS011;551;48.524;9.056;2023-01-26T14:12:52;13.90;;;5.80;;
505;SDS011;551;48.524;9.056;2023-01-26T14:15:26;14.13;;;8.50;;
505;SDS011;551;48.524;9.056;2023-01-26T14:18:01;13.77;;;6.80;;
505;SDS011;551;48.524;9.056;2023-01-26T14:20:33;14.37;;;6.80;;
505;SDS011;551;48.524;9.056;2023-01-26T14:23:01;12.67;;;7.00;;
505;SDS011;551;48.524;9.056;2023-01-26T14:25:27;13.13;;;6.63;;
505;SDS011;551;48.524;9.056;2023-01-26T14:27:53;11.97;;;7.17;;
505;SDS011;551;48.524;9.056;2023-01-26T14:30:26;12.83;;;7.87;;
505;SDS011;551;48.524;9.056;2023-01-26T14:33:13;13.13;;;6.47;;
505;SDS011;551;48.524;9.056;2023-01-26T14:35:41;11.97;;;6.30;;
505;SDS011;551;48.524;9.056;2023-01-26T14:38:20;12.20;;;6.50;;
505;SDS011;551;48.524;9.056;2023-01-26T14:40:49;15.70;;;7.20;;
505;SDS011;551;48.524;9.056;2023-01-26T14:43:16;13.50;;;7.30;;
505;SDS011;551;48.524;9.056;2023-01-26T14:45:50;16.67;;;7.63;;
505;SDS011;551;48.524;9.056;2023-01-26T14:48:22;16.73;;;7.67;;
505;SDS011;551;48.524;9.056;2023-01-26T14:50:55;13.73;;;7.67;;
505;SDS011;551;48.524;9.056;2023-01-26T14:53:22;17.67;;;7.80;;
505;SDS011;551;48.524;9.056;2023-01-26T14:55:49;13.30;;;7.47;;
505;SDS011;551;48.524;9.056;2023-01-26T14:58:29;15.60;;;8.10;;
505;SDS011;551;48.524;9.056;2023-01-26T15:00:57;16.03;;;8.27;;
505;SDS011;551;48.524;9.056;2023-01-26T15:06:02;16.00;;;7.73;;
505;SDS011;551;48.524;9.056;2023-01-26T15:08:50;23.27;;;9.17;;
505;SDS011;551;48.524;9.056;2023-01-26T15:11:28;15.50;;;8.60;;
505;SDS011;551;48.524;9.056;2023-01-26T15:14:59;17.07;;;7.63;;
505;SDS011;551;48.524;9.056;2023-01-26T15:17:09;12.27;;;7.30;;
505;SDS011;551;48.524;9.056;2023-01-26T15:19:54;14.50;;;8.50;;
505;SDS011;551;48.524;9.056;2023-01-26T15:22:20;15.33;;;8.23;;
505;SDS011;551;48.524;9.056;2023-01-26T15:25:02;15.77;;;7.90;;
505;SDS011;551;48.524;9.056;2023-01-26T15:27:30;16.33;;;8.50;;
505;SDS011;551;48.524;9.056;2023-01-26T15:29:59;13.90;;;7.27;;
505;SDS011;551;48.524;9.056;2023-01-26T15:32:26;11.20;;;6.00;;
505;SDS011;551;48.524;9.056;2023-01-26T15:38:07;13.43;;;7.83;;
505;SDS011;551;48.524;9.056;2023-01-26T15:40:35;16.17;;;9.02;;
505;SDS011;551;48.524;9.056;2023-01-26T15:43:19;18.53;;;8.93;;
505;SDS011;551;48.524;9.056;2023-01-26T15:48:17;12.30;;;6.70;;
505;SDS011;551;48.524;9.056;2023-01-26T15:50:43;16.43;;;8.57;;
505;SDS011;551;48.524;9.056;2023-01-26T15:53:11;13.50;;;7.20;;
505;SDS011;551;48.524;9.056;2023-01-26T15:55:44;16.20;;;7.60;;
505;SDS011;551;48.524;9.056;2023-01-26T15:58:16;14.50;;;7.83;;
505;SDS011;551;48.524;9.056;2023-01-26T16:00:42;13.83;;;7.80;;
505;SDS011;551;48.524;9.056;2023-01-26T16:03:10;16.50;;;8.00;;
505;SDS011;551;48.524;9.056;2023-01-26T16:05:38;13.83;;;7.30;;
505;SDS011;551;48.524;9.056;2023-01-26T16:08:04;13.50;;;7.20;;
505;SDS011;551;48.524;9.056;2023-01-26T16:10:29;16.40;;;7.70;;
505;SDS011;551;48.524;9.056;2023-01-26T16:12:55;18.00;;;7.13;;
505;SDS011;551;48.524;9.056;2023-01-26T16:15:38;15.00;;;7.83;;
505;SDS011;551;48.524;9.056;2023-01-26T16:18:06;14.77;;;7.33;;
505;SDS011;551;48.524;9.056;2023-01-26T16:20:32;21.37;;;8.70;;
505;SDS011;551;48.524;9.056;2023-01-26T16:22:59;15.47;;;7.07;;
505;SDS011;551;48.524;9.056;2023-01-26T16:25:26;18.33;;;8.20;;
505;SDS011;551;48.524;9.056;2023-01-26T16:27:53;14.93;;;7.43;;
505;SDS011;551;48.524;9.056;2023-01-26T16:30:20;13.10;;;8.57;;
505;SDS011;551;48.524;9.056;2023-01-26T16:32:46;16.03;;;7.57;;
505;SDS011;551;48.524;9.056;2023-01-26T16:35:14;15.00;;;8.17;;
505;SDS011;551;48.524;9.056;2023-01-26T16:37:41;17.37;;;9.30;;
505;SDS011;551;48.524;9.056;2023-01-26T16:40:07;15.63;;;7.90;;
505;SDS011;551;48.524;9.056;2023-01-26T16:42:34;13.67;;;7.20;;
505;SDS011;551;48.524;9.056;2023-01-26T16:45:02;18.87;;;9.00;;
505;SDS011;551;48.524;9.056;2023-01-26T16:47:27;16.83;;;9.10;;
505;SDS011;551;48.524;9.056;2023-01-26T16:49:53;20.10;;;8.47;;
505;SDS011;551;48.524;9.056;2023-01-26T16:52:18;17.00;;;7.90;;
505;SDS011;551;48.524;9.056;2023-01-26T16:54:44;16.80;;;8.60;;
505;SDS011;551;48.524;9.056;2023-01-26T16:57:12;20.13;;;9.67;;
505;SDS011;551;48.524;9.056;2023-01-26T16:59:37;16.03;;;8.00;;
505;SDS011;551;48.524;9.056;2023-01-26T17:02:04;18.73;;;8.17;;
505;SDS011;551;48.524;9.056;2023-01-26T17:04:29;16.57;;;8.90;;
505;SDS011;551;48.524;9.056;2023-01-26T17:06:55;20.03;;;9.07;;
505;SDS011;551;48.524;9.056;2023-01-26T17:09:20;14.70;;;8.10;;
505;SDS011;551;48.524;9.056;2023-01-26T17:11:47;16.40;;;8.90;;
505;SDS011;551;48.524;9.056;2023-01-26T17:14:13;22.90;;;9.70;;
505;SDS011;551;48.524;9.056;2023-01-26T17:16:38;18.67;;;9.43;;